DW7777 Weather Reports


Display with metric or nautical units.
time (UTC)temp
F
wind
direction
speed
MPH
gust
MPH
rain 1hr
in
rain 24hr
in
rain mn
in
humidity
%
barometer
mb
20190324083118 59 177 0.0 0.0 0.00 0.00 0.00 89 1013.6
20190324081726 59 177 0.0 0.0 0.00 0.00 0.00 88 1013.7
20190324080059 59 177 0.0 0.0 0.00 0.00 0.00 87 1013.9
20190324074549 60 185 0.0 0.0 0.00 0.00 0.00 86 1013.9
20190324073054 60 200 0.0 0.0 0.00 0.00 0.00 85 1014.0
20190324071610 61 205 0.0 2.0 0.00 0.00 0.00 84 1014.0
20190324070117 61 168 0.0 0.0 0.00 0.00 0.00 82 1014.2
20190324064617 62 188 0.0 5.0 0.00 0.00 0.00 82 1014.3
20190324063047 62 153 0.0 4.0 0.00 0.00 0.00 81 1014.4
20190324061647 62 202 0.0 0.0 0.00 0.00 0.00 80 1014.4
20190324060044 62 200 0.0 0.0 0.00 0.00 0.00 78 1014.5
20190324054547 63 191 0.0 0.0 0.00 0.00 0.00 76 1014.5
20190324053030 63 194 0.0 0.0 0.00 0.00 0.00 75 1014.6
20190324051548 62 196 0.0 3.0 0.00 0.00 0.00 75 1014.7
20190324050032 61 201 0.0 3.0 0.00 0.00 0.00 69 1014.6
20190324044614 61 236 0.0 0.0 0.00 0.00 0.00 64 1014.6
20190324043041 61 242 0.0 1.0 0.00 0.00 0.00 61 1014.5
20190324041528 62 229 0.0 0.0 0.00 0.00 0.00 56 1014.3
20190324040023 62 205 0.0 2.0 0.00 0.00 0.00 55 1014.2
20190324034518 60 187 0.0 1.0 0.00 0.00 0.00 52 1013.8
20190324033017 60 192 0.0 1.0 0.00 0.00 0.00 48 1013.2
20190324031520 58 248 0.0 0.0 0.00 0.00 0.00 59 1012.9
20190324030025 60 248 0.0 0.0 0.00 0.00 0.00 55 1012.7
20190324024518 61 248 0.0 0.0 0.00 0.00 0.00 54 1012.4
20190324023016 62 249 0.0 0.0 0.00 0.00 0.00 49 1012.3
20190324021519 64 249 0.0 0.0 0.00 0.00 0.00 52 1012.0
20190324020014 65 249 0.0 0.0 0.00 0.00 0.00 46 1012.0
20190324014557 67 249 0.0 0.0 0.00 0.00 0.00 42 1011.8
20190324013020 70 249 0.0 0.0 0.00 0.00 0.00 34 1011.6
20190324011515 72 249 0.0 0.0 0.00 0.00 0.00 29 1011.5
20190324010012 74 249 0.0 0.0 0.00 0.00 0.00 28 1011.5
20190324004510 75 249 0.0 0.0 0.00 0.00 0.00 25 1011.7
20190324003015 76 249 0.0 0.0 0.00 0.00 0.00 24 1011.8
20190324001508 76 254 0.0 0.0 0.00 0.00 0.00 24 1011.9
20190324000011 77 255 0.0 1.0 0.00 0.00 0.00 24 1012.0
20190323234518 78 270 0.0 7.0 0.00 0.00 0.00 23 1011.9
20190323233018 78 278 0.0 6.0 0.00 0.00 0.00 24 1011.9
20190323231522 78 267 0.0 4.0 0.00 0.00 0.00 22 1011.9
20190323230004 79 252 2.0 11.0 0.00 0.00 0.00 21 1011.8
20190323224503 80 250 0.0 9.0 0.00 0.00 0.00 21 1011.9
20190323223001 79 274 0.0 9.0 0.00 0.00 0.00 23 1011.8
20190323221716 79 269 3.0 13.0 0.00 0.00 0.00 23 1011.8
20190323214629 81 277 6.0 12.0 0.00 0.00 0.00 22 1011.5
20190323213201 82 259 4.0 13.0 0.00 0.00 0.00 24 1011.6
20190323211713 81 278 6.0 12.0 0.00 0.00 0.00 23 1011.6
20190323210302 81 238 3.0 12.0 0.00 0.00 0.00 27 1011.6
20190323204632 80 302 3.0 9.0 0.00 0.00 0.00 28 1011.8
20190323203200 79 266 7.0 12.0 0.00 0.00 0.00 26 1012.1
20190323201630 80 259 4.0 13.0 0.00 0.00 0.00 30 1012.0
20190323200138 80 252 4.0 9.0 0.00 0.00 0.00 29 1012.1
20190323194611 79 296 5.0 15.0 0.00 0.00 0.00 32 1012.4
20190323193141 79 151 2.0 12.0 0.00 0.00 0.00 34 1012.5
20190323191625 78 168 5.0 10.0 0.00 0.00 0.00 36 1013.0
20190323190055 78 292 5.0 9.0 0.00 0.00 0.00 38 1013.2
20190323184606 78 283 7.0 14.0 0.00 0.00 0.00 43 1013.4
20190323183102 77 276 4.0 10.0 0.00 0.00 0.00 44 1013.7
20190323181544 76 205 3.0 9.0 0.00 0.00 0.00 46 1013.9
20190323180102 75 195 3.0 10.0 0.00 0.00 0.00 51 1014.1
20190323174550 74 226 3.0 11.0 0.00 0.00 0.00 52 1014.3
20190323173138 74 234 4.0 12.0 0.00 0.00 0.00 50 1014.4
20190323171529 74 258 5.0 12.0 0.00 0.00 0.00 54 1014.7
20190323170016 73 188 6.0 12.0 0.00 0.00 0.00 57 1014.9
20190323164522 72 271 4.0 9.0 0.00 0.00 0.00 59 1014.9
20190323163008 71 200 3.0 14.0 0.00 0.00 0.00 67 1014.9
20190323161505 71 219 4.0 12.0 0.00 0.00 0.00 67 1015.0
20190323160012 70 276 5.0 13.0 0.00 0.00 0.00 69 1015.0
20190323154701 70 201 5.0 12.0 0.00 0.00 0.00 69 1015.0
20190323153202 69 232 4.0 14.0 0.00 0.00 0.00 71 1015.0
20190323151608 68 266 5.0 16.0 0.00 0.00 0.00 73 1015.0
20190323150143 67 274 5.0 13.0 0.00 0.00 0.00 75 1014.8
20190323144620 67 305 4.0 11.0 0.00 0.00 0.00 77 1014.8
20190323143157 65 286 4.0 10.0 0.00 0.00 0.00 80 1014.6
20190323141607 63 204 0.0 6.0 0.00 0.00 0.00 84 1014.5
20190323140058 61 197 0.0 5.0 0.00 0.00 0.00 86 1014.3
20190323134634 59 187 0.0 3.0 0.00 0.00 0.00 88 1014.2
20190323133046 59 199 0.0 2.0 0.00 0.00 0.00 89 1014.1
20190323131601 58 168 0.0 2.0 0.00 0.00 0.00 90 1014.0
20190323130050 57 162 0.0 2.0 0.00 0.00 0.00 91 1013.9
20190323124552 56 160 0.0 1.0 0.00 0.00 0.00 90 1013.7
20190323123101 57 160 0.0 0.0 0.00 0.00 0.00 87 1013.6
20190323121626 58 160 0.0 0.0 0.00 0.00 0.00 86 1013.5
20190323120117 58 160 0.0 2.0 0.00 0.00 0.00 86 1013.2
20190323114547 59 173 0.0 5.0 0.00 0.00 0.00 85 1013.0
20190323113025 59 160 0.0 2.0 0.00 0.00 0.00 84 1013.0
20190323111624 60 154 0.0 2.0 0.00 0.00 0.00 83 1013.1
20190323110023 60 124 2.0 4.0 0.00 0.00 0.00 83 1013.2
20190323104604 60 167 0.0 0.0 0.00 0.00 0.00 82 1013.4
20190323103033 61 167 1.0 5.0 0.00 0.00 0.00 81 1013.1
20190323101517 62 143 2.0 5.0 0.00 0.00 0.00 80 1013.1
20190323100022 62 169 1.0 5.0 0.00 0.00 0.00 79 1013.1
20190323094524 63 189 1.0 6.0 0.00 0.00 0.00 79 1013.4
20190323093014 63 158 0.0 8.0 0.00 0.00 0.00 78 1013.6
20190323091508 63 197 1.0 5.0 0.00 0.00 0.00 78 1014.0
20190323090020 62 184 0.0 4.0 0.00 0.00 0.00 79 1014.1
20190323084507 62 106 0.0 3.0 0.00 0.00 0.00 79 1014.0